Time;durP1;ratioP1;P1;durP2;ratioP2;P2;SDS_P1;SDS_P2;PMS_P1;PMS_P2;Temp;Humidity;BMP_temperature;BMP_pressure;BME280_temperature;BME280_humidity;BME280_pressure;Samples;Min_cycle;Max_cycle;Signal;HPM_P1;HPM_P2
2023/04/04 00:00:48;;;;;;;0.80;0.63;;;;;;;;;;5091269;28;20491;-65
2023/04/04 00:03:15;;;;;;;0.60;0.40;;;;;;;;;;5092630;28;20452;-65
2023/04/04 00:05:42;;;;;;;0.60;0.40;;;;;;;;;;5091792;28;20449;-65
2023/04/04 00:08:10;;;;;;;1.47;1.37;;;;;;;;;;5092741;28;20449;-65
2023/04/04 00:10:38;;;;;;;0.50;0.40;;;;;;;;;;5091368;28;20983;-64
2023/04/04 00:13:06;;;;;;;0.60;0.40;;;;;;;;;;5092518;28;20457;-65
2023/04/04 00:15:35;;;;;;;0.50;0.40;;;;;;;;;;5092308;28;20487;-65
2023/04/04 00:18:02;;;;;;;0.60;0.40;;;;;;;;;;5092275;28;20452;-65
2023/04/04 00:20:29;;;;;;;0.60;0.50;;;;;;;;;;5091833;28;20541;-65
2023/04/04 00:22:56;;;;;;;0.60;0.40;;;;;;;;;;5091757;28;20854;-65
2023/04/04 00:25:24;;;;;;;0.60;0.40;;;;;;;;;;5092220;28;20448;-65
2023/04/04 00:27:52;;;;;;;0.60;0.40;;;;;;;;;;5091646;28;20456;-65
2023/04/04 00:30:19;;;;;;;0.60;0.40;;;;;;;;;;5091898;28;20460;-65
2023/04/04 00:32:46;;;;;;;0.60;0.50;;;;;;;;;;5091016;28;20954;-65
2023/04/04 00:35:13;;;;;;;0.60;0.40;;;;;;;;;;5091965;28;20447;-65
2023/04/04 00:37:41;;;;;;;0.60;0.40;;;;;;;;;;5091407;28;20454;-64
2023/04/04 00:40:09;;;;;;;0.60;0.40;;;;;;;;;;5091518;28;20752;-65
2023/04/04 00:42:36;;;;;;;0.60;0.40;;;;;;;;;;5090941;28;20448;-64
2023/04/04 00:45:05;;;;;;;0.57;0.40;;;;;;;;;;5092038;28;20468;-65
2023/04/04 00:47:32;;;;;;;0.60;0.40;;;;;;;;;;5091751;28;20440;-65
2023/04/04 00:49:59;;;;;;;0.53;0.40;;;;;;;;;;5090721;28;20954;-65
2023/04/04 00:52:27;;;;;;;0.60;0.40;;;;;;;;;;5091724;28;20457;-66
2023/04/04 00:54:55;;;;;;;0.60;0.40;;;;;;;;;;5090918;28;20445;-65
2023/04/04 00:57:23;;;;;;;0.60;0.60;;;;;;;;;;5077938;28;20463;-65
2023/04/04 00:59:50;;;;;;;0.60;0.43;;;;;;;;;;5090083;28;20961;-65
2023/04/04 01:02:19;;;;;;;0.60;0.40;;;;;;;;;;5091300;28;20464;-65
2023/04/04 01:04:46;;;;;;;0.60;0.40;;;;;;;;;;5090773;28;20440;-65
2023/04/04 01:07:13;;;;;;;0.60;0.40;;;;;;;;;;5091640;28;20449;-65
2023/04/04 01:09:40;;;;;;;0.60;0.40;;;;;;;;;;5090165;28;20958;-65
2023/04/04 01:12:08;;;;;;;0.60;0.40;;;;;;;;;;5091092;28;21046;-65
2023/04/04 01:14:35;;;;;;;0.60;0.40;;;;;;;;;;5091442;28;20456;-66
2023/04/04 01:17:02;;;;;;;0.60;0.40;;;;;;;;;;5090934;28;20445;-65
2023/04/04 01:19:32;;;;;;;0.60;0.40;;;;;;;;;;5090206;28;20454;-65
2023/04/04 01:22:00;;;;;;;0.60;0.40;;;;;;;;;;5050323;28;20446;-65
2023/04/04 01:24:29;;;;;;;0.60;0.40;;;;;;;;;;5050950;28;20496;-65
2023/04/04 01:26:59;;;;;;;0.60;0.40;;;;;;;;;;5050424;28;20791;-65
2023/04/04 01:29:26;;;;;;;0.60;0.40;;;;;;;;;;5050508;28;20492;-65
2023/04/04 01:31:57;;;;;;;0.60;0.40;;;;;;;;;;5050267;28;20512;-65
2023/04/04 01:34:27;;;;;;;0.60;0.40;;;;;;;;;;5050583;28;20462;-65
2023/04/04 01:36:57;;;;;;;0.60;0.40;;;;;;;;;;5050054;28;20450;-65
2023/04/04 01:39:27;;;;;;;0.60;0.40;;;;;;;;;;5050298;28;20913;-65
2023/04/04 01:41:56;;;;;;;0.60;0.40;;;;;;;;;;5050021;28;20465;-65
2023/04/04 01:44:25;;;;;;;0.60;0.60;;;;;;;;;;5050453;28;20446;-65
2023/04/04 01:46:54;;;;;;;0.60;0.40;;;;;;;;;;5049438;28;20453;-65
2023/04/04 01:49:21;;;;;;;0.97;0.60;;;;;;;;;;5050459;28;20442;-65
2023/04/04 01:51:49;;;;;;;0.60;0.40;;;;;;;;;;5050143;28;20454;-65
2023/04/04 01:54:17;;;;;;;0.60;0.40;;;;;;;;;;5050720;28;20472;-65
2023/04/04 01:56:45;;;;;;;0.60;0.40;;;;;;;;;;5050218;28;20857;-65
2023/04/04 01:59:12;;;;;;;0.60;0.50;;;;;;;;;;5049965;28;20459;-65
2023/04/04 02:01:40;;;;;;;0.60;0.40;;;;;;;;;;5049691;28;20489;-64
2023/04/04 02:04:10;;;;;;;0.60;0.40;;;;;;;;;;5050223;28;20970;-65
2023/04/04 02:06:37;;;;;;;0.60;0.40;;;;;;;;;;5049850;28;20927;-65
2023/04/04 02:09:04;;;;;;;0.60;0.40;;;;;;;;;;5050218;28;20459;-65
2023/04/04 02:11:31;;;;;;;0.60;0.40;;;;;;;;;;5050385;28;20446;-65
2023/04/04 02:13:58;;;;;;;0.60;0.40;;;;;;;;;;5050081;28;20508;-65
2023/04/04 02:16:25;;;;;;;0.60;0.40;;;;;;;;;;5050447;28;20454;-65
2023/04/04 02:18:54;;;;;;;0.60;0.43;;;;;;;;;;5049382;28;20929;-65
2023/04/04 02:21:21;;;;;;;0.70;0.70;;;;;;;;;;5080780;28;20490;-65
2023/04/04 02:23:48;;;;;;;0.60;0.40;;;;;;;;;;5089848;28;20965;-65
2023/04/04 02:26:15;;;;;;;0.60;0.40;;;;;;;;;;5090491;28;20455;-65
2023/04/04 02:28:42;;;;;;;0.90;0.60;;;;;;;;;;5089773;28;20794;-65
2023/04/04 02:31:09;;;;;;;0.60;0.40;;;;;;;;;;5090518;28;20541;-65
2023/04/04 02:33:36;;;;;;;0.60;0.40;;;;;;;;;;5090124;28;20448;-64
2023/04/04 02:36:05;;;;;;;0.80;0.80;;;;;;;;;;5090693;28;20881;-65
2023/04/04 02:38:33;;;;;;;0.60;0.40;;;;;;;;;;5089938;28;20480;-65
2023/04/04 02:41:00;;;;;;;0.60;0.40;;;;;;;;;;5089788;28;20487;-65
2023/04/04 02:43:27;;;;;;;0.60;0.40;;;;;;;;;;5090472;28;20451;-65
2023/04/04 02:45:54;;;;;;;0.50;0.40;;;;;;;;;;5089887;28;20441;-64
2023/04/04 02:48:21;;;;;;;0.60;0.40;;;;;;;;;;5090214;28;20444;-65
2023/04/04 02:50:48;;;;;;;0.60;0.40;;;;;;;;;;5090052;28;20463;-64
2023/04/04 02:53:17;;;;;;;0.60;0.40;;;;;;;;;;5090322;28;20449;-65
2023/04/04 02:55:45;;;;;;;0.60;0.50;;;;;;;;;;5089974;28;20501;-65
2023/04/04 02:58:12;;;;;;;0.57;0.40;;;;;;;;;;5092180;28;20445;-65
2023/04/04 03:00:39;;;;;;;0.60;0.40;;;;;;;;;;5092953;28;20970;-64
2023/04/04 03:03:06;;;;;;;0.60;0.40;;;;;;;;;;5093534;28;20478;-64
2023/04/04 03:05:33;;;;;;;0.60;0.40;;;;;;;;;;5094256;28;20452;-65
2023/04/04 03:08:01;;;;;;;0.60;0.40;;;;;;;;;;5093553;28;20440;-64
2023/04/04 03:10:30;;;;;;;0.53;0.40;;;;;;;;;;5093701;28;20934;-65
2023/04/04 03:12:57;;;;;;;0.60;0.40;;;;;;;;;;5093027;28;20459;-65
2023/04/04 03:15:24;;;;;;;0.60;0.40;;;;;;;;;;5093859;28;20451;-65
2023/04/04 03:17:51;;;;;;;0.57;0.40;;;;;;;;;;5092743;28;20476;-64
2023/04/04 03:20:18;;;;;;;0.60;0.40;;;;;;;;;;5092955;28;20492;-64
2023/04/04 03:22:45;;;;;;;0.60;0.40;;;;;;;;;;5093168;28;20809;-64
2023/04/04 03:25:12;;;;;;;0.60;0.40;;;;;;;;;;5093699;28;20444;-65
2023/04/04 03:27:41;;;;;;;0.60;0.40;;;;;;;;;;5093074;28;20461;-64
2023/04/04 03:30:08;;;;;;;0.60;0.40;;;;;;;;;;5093259;28;20455;-64
2023/04/04 03:32:38;;;;;;;0.60;0.40;;;;;;;;;;5093497;28;20464;-64
2023/04/04 03:35:05;;;;;;;0.60;0.40;;;;;;;;;;5093500;28;21015;-64
2023/04/04 03:37:32;;;;;;;0.60;0.40;;;;;;;;;;5093713;28;20445;-64
2023/04/04 03:40:00;;;;;;;0.60;0.40;;;;;;;;;;5092603;28;20810;-65
2023/04/04 03:42:27;;;;;;;0.60;0.40;;;;;;;;;;5092880;28;21009;-65
2023/04/04 03:44:55;;;;;;;0.60;0.40;;;;;;;;;;5092988;28;20464;-64
2023/04/04 03:47:23;;;;;;;0.60;0.50;;;;;;;;;;5093117;28;20445;-64
2023/04/04 03:49:51;;;;;;;0.57;0.40;;;;;;;;;;5091888;28;20880;-65
2023/04/04 03:52:18;;;;;;;0.60;0.40;;;;;;;;;;5093334;28;20508;-65
2023/04/04 03:54:45;;;;;;;0.60;0.40;;;;;;;;;;5092800;28;20879;-64
2023/04/04 03:57:12;;;;;;;0.60;0.40;;;;;;;;;;5093156;28;20447;-65
2023/04/04 03:59:40;;;;;;;0.60;0.40;;;;;;;;;;5092211;28;20455;-65
2023/04/04 04:02:08;;;;;;;0.60;0.40;;;;;;;;;;5092722;28;20484;-64
2023/04/04 04:04:35;;;;;;;0.60;0.40;;;;;;;;;;5093184;28;20913;-65
2023/04/04 04:07:02;;;;;;;0.60;0.47;;;;;;;;;;5093105;28;20447;-65
2023/04/04 04:09:29;;;;;;;0.60;0.40;;;;;;;;;;5092153;28;20448;-65
2023/04/04 04:11:57;;;;;;;0.60;0.40;;;;;;;;;;5092290;28;20463;-65
2023/04/04 04:14:24;;;;;;;0.60;0.40;;;;;;;;;;5092925;28;20903;-65
2023/04/04 04:16:51;;;;;;;0.60;0.40;;;;;;;;;;5091623;28;20459;-64
2023/04/04 04:19:19;;;;;;;0.60;0.40;;;;;;;;;;5092273;28;20471;-65
2023/04/04 04:21:46;;;;;;;0.60;0.40;;;;;;;;;;5078478;28;20487;-65
2023/04/04 04:24:14;;;;;;;0.50;0.40;;;;;;;;;;5092635;28;20448;-65
2023/04/04 04:26:41;;;;;;;0.57;0.40;;;;;;;;;;5092126;28;20457;-64
2023/04/04 04:29:08;;;;;;;0.60;0.40;;;;;;;;;;5092030;28;20532;-64
2023/04/04 04:31:35;;;;;;;0.60;0.40;;;;;;;;;;5092636;28;20456;-65
2023/04/04 04:34:06;;;;;;;0.50;0.40;;;;;;;;;;5092241;28;20455;-65
2023/04/04 04:36:35;;;;;;;0.60;0.40;;;;;;;;;;5092596;28;20528;-66
2023/04/04 04:39:02;;;;;;;0.60;0.50;;;;;;;;;;5091906;28;20460;-65
2023/04/04 04:41:29;;;;;;;0.60;0.40;;;;;;;;;;5092145;28;20810;-65
2023/04/04 04:43:56;;;;;;;0.60;0.40;;;;;;;;;;5091264;28;20464;-65
2023/04/04 04:46:23;;;;;;;0.60;0.50;;;;;;;;;;5092111;28;20449;-65
2023/04/04 04:48:50;;;;;;;0.60;0.40;;;;;;;;;;5091168;28;20451;-65
2023/04/04 04:51:18;;;;;;;0.60;0.40;;;;;;;;;;5092233;28;20479;-65
2023/04/04 04:53:46;;;;;;;0.60;0.50;;;;;;;;;;5091404;28;20455;-64
2023/04/04 04:56:13;;;;;;;0.60;0.40;;;;;;;;;;5091702;28;20955;-64
2023/04/04 04:58:40;;;;;;;0.60;0.40;;;;;;;;;;5090986;28;20455;-64
2023/04/04 05:01:07;;;;;;;0.70;0.60;;;;;;;;;;5091942;28;20489;-65
2023/04/04 05:03:34;;;;;;;0.60;0.40;;;;;;;;;;5091798;28;20459;-65
2023/04/04 05:06:02;;;;;;;0.60;0.60;;;;;;;;;;5091656;28;20943;-65
2023/04/04 05:08:29;;;;;;;0.60;0.40;;;;;;;;;;5091266;28;20483;-64
2023/04/04 05:10:57;;;;;;;0.70;0.50;;;;;;;;;;5090805;28;20686;-65
2023/04/04 05:13:24;;;;;;;0.60;0.40;;;;;;;;;;5091489;28;20460;-65
2023/04/04 05:15:52;;;;;;;0.60;0.40;;;;;;;;;;5091128;28;20455;-65
2023/04/04 05:18:19;;;;;;;0.60;0.40;;;;;;;;;;5090780;28;20935;-65
2023/04/04 05:20:51;;;;;;;0.70;0.70;;;;;;;;;;5089908;28;20483;-65
2023/04/04 05:23:18;;;;;;;0.60;0.40;;;;;;;;;;5091410;28;20444;-65
2023/04/04 05:25:45;;;;;;;0.60;0.50;;;;;;;;;;5090681;28;20458;-64
2023/04/04 05:28:13;;;;;;;0.60;0.40;;;;;;;;;;5091081;28;20802;-65
2023/04/04 05:30:40;;;;;;;0.63;0.60;;;;;;;;;;5090700;28;20964;-64
2023/04/04 05:33:07;;;;;;;0.60;0.40;;;;;;;;;;5091304;28;20448;-65
2023/04/04 05:35:35;;;;;;;0.60;0.40;;;;;;;;;;5091132;28;20474;-65
2023/04/04 05:38:02;;;;;;;1.57;0.70;;;;;;;;;;5091487;28;20529;-65
2023/04/04 05:40:29;;;;;;;0.60;0.50;;;;;;;;;;5090499;28;20448;-66
2023/04/04 05:42:57;;;;;;;0.60;0.50;;;;;;;;;;5090326;28;21017;-65
2023/04/04 05:45:25;;;;;;;0.87;0.87;;;;;;;;;;5091066;28;20518;-64
2023/04/04 05:47:53;;;;;;;0.60;0.40;;;;;;;;;;5090318;28;20447;-65
2023/04/04 05:50:20;;;;;;;2.83;0.73;;;;;;;;;;5090493;28;20455;-65
2023/04/04 05:52:47;;;;;;;0.80;0.60;;;;;;;;;;5090630;28;20469;-64
2023/04/04 05:55:14;;;;;;;0.60;0.40;;;;;;;;;;5091045;28;20452;-64
2023/04/04 05:57:47;;;;;;;0.60;0.40;;;;;;;;;;5090792;28;20445;-65
2023/04/04 06:00:16;;;;;;;0.60;0.40;;;;;;;;;;5090725;28;20444;-65
2023/04/04 06:02:44;;;;;;;0.60;0.40;;;;;;;;;;5090303;28;20972;-65
2023/04/04 06:05:11;;;;;;;1.17;1.07;;;;;;;;;;5091008;28;20471;-65
2023/04/04 06:07:39;;;;;;;1.00;1.00;;;;;;;;;;5090824;28;20814;-65
2023/04/04 06:10:07;;;;;;;0.60;0.40;;;;;;;;;;5090413;28;20451;-65
2023/04/04 06:12:34;;;;;;;1.23;0.73;;;;;;;;;;5091050;28;20456;-65
2023/04/04 06:15:01;;;;;;;0.53;0.40;;;;;;;;;;5091160;28;20444;-65
2023/04/04 06:17:28;;;;;;;0.57;0.40;;;;;;;;;;5090843;28;20441;-65
2023/04/04 06:19:57;;;;;;;0.60;0.40;;;;;;;;;;5089467;28;20484;-63
2023/04/04 06:22:24;;;;;;;0.60;0.40;;;;;;;;;;5090700;28;20506;-63
2023/04/04 06:24:51;;;;;;;0.60;0.40;;;;;;;;;;5090102;28;20468;-65
2023/04/04 06:27:18;;;;;;;0.50;0.40;;;;;;;;;;5090783;28;20456;-63
2023/04/04 06:29:45;;;;;;;0.57;0.40;;;;;;;;;;5089772;28;20454;-64
2023/04/04 06:32:13;;;;;;;1.30;1.23;;;;;;;;;;5092350;28;20455;-65
2023/04/04 06:34:40;;;;;;;0.60;0.40;;;;;;;;;;5094121;28;20440;-65
2023/04/04 06:37:08;;;;;;;0.50;0.40;;;;;;;;;;5094614;28;20458;-65
2023/04/04 06:39:36;;;;;;;0.50;0.40;;;;;;;;;;5094114;28;20452;-65
2023/04/04 06:42:03;;;;;;;0.70;0.53;;;;;;;;;;5094473;28;20614;-65
2023/04/04 06:44:30;;;;;;;0.60;0.40;;;;;;;;;;5094275;28;20453;-64
2023/04/04 06:46:57;;;;;;;2.30;1.23;;;;;;;;;;5093907;28;20540;-64
2023/04/04 06:49:24;;;;;;;0.60;0.40;;;;;;;;;;5093683;28;20919;-64
2023/04/04 06:51:52;;;;;;;0.83;0.83;;;;;;;;;;5093461;28;20518;-64
2023/04/04 06:54:21;;;;;;;0.60;0.40;;;;;;;;;;5094209;28;20441;-64
2023/04/04 06:56:48;;;;;;;0.60;0.40;;;;;;;;;;5093453;28;20444;-64
2023/04/04 06:59:15;;;;;;;0.60;0.40;;;;;;;;;;5093756;28;20445;-64
2023/04/04 07:01:42;;;;;;;1.47;0.80;;;;;;;;;;5093033;28;20488;-64
2023/04/04 07:04:09;;;;;;;0.57;0.40;;;;;;;;;;5094105;28;20805;-65
2023/04/04 07:06:36;;;;;;;0.60;0.40;;;;;;;;;;5093378;28;20444;-64
2023/04/04 07:09:04;;;;;;;0.60;0.50;;;;;;;;;;5093451;28;20444;-64
2023/04/04 07:11:32;;;;;;;0.60;0.40;;;;;;;;;;5093941;28;20452;-64
2023/04/04 07:14:00;;;;;;;0.50;0.40;;;;;;;;;;5093299;28;20440;-65
2023/04/04 07:16:27;;;;;;;0.60;0.40;;;;;;;;;;5093601;28;20482;-66
2023/04/04 07:18:54;;;;;;;1.10;1.00;;;;;;;;;;5092646;28;20471;-64
2023/04/04 07:21:21;;;;;;;0.60;0.40;;;;;;;;;;5093104;28;20493;-64
2023/04/04 07:23:49;;;;;;;0.80;0.80;;;;;;;;;;5093378;28;20544;-64
2023/04/04 07:26:16;;;;;;;0.60;0.40;;;;;;;;;;5093281;28;20543;-64
2023/04/04 07:28:45;;;;;;;0.60;0.40;;;;;;;;;;5092790;28;20452;-65
2023/04/04 07:31:13;;;;;;;0.60;0.40;;;;;;;;;;5093601;28;20467;-64
2023/04/04 07:33:40;;;;;;;0.60;0.50;;;;;;;;;;5092843;28;20488;-64
2023/04/04 07:36:08;;;;;;;0.60;0.40;;;;;;;;;;5093434;28;20523;-64
2023/04/04 07:38:36;;;;;;;0.60;0.40;;;;;;;;;;5093281;28;20456;-65
2023/04/04 07:41:03;;;;;;;0.57;0.40;;;;;;;;;;5093210;28;20457;-65
2023/04/04 07:43:30;;;;;;;0.57;0.40;;;;;;;;;;5092391;28;20488;-65
2023/04/04 07:45:58;;;;;;;0.60;0.40;;;;;;;;;;5092683;28;20465;-64
2023/04/04 07:48:26;;;;;;;0.60;0.40;;;;;;;;;;5092898;28;20875;-65
2023/04/04 07:50:53;;;;;;;0.60;0.40;;;;;;;;;;5092427;28;20464;-65
2023/04/04 07:53:21;;;;;;;1.47;0.63;;;;;;;;;;5093271;28;20809;-65
2023/04/04 07:55:48;;;;;;;0.60;0.50;;;;;;;;;;5092477;28;20449;-64
2023/04/04 07:58:15;;;;;;;0.50;0.40;;;;;;;;;;5092740;28;20947;-64
2023/04/04 08:00:42;;;;;;;0.60;0.40;;;;;;;;;;5078744;28;20480;-64
2023/04/04 08:03:11;;;;;;;5.93;1.50;;;;;;;;;;5092754;28;20828;-64
2023/04/04 08:05:38;;;;;;;0.60;0.40;;;;;;;;;;5092082;28;20964;-64
2023/04/04 08:08:05;;;;;;;0.60;0.43;;;;;;;;;;5092272;28;20455;-65
2023/04/04 08:10:32;;;;;;;0.50;0.40;;;;;;;;;;5093044;28;20459;-64
2023/04/04 08:12:59;;;;;;;2.80;1.07;;;;;;;;;;5092124;28;20450;-64
2023/04/04 08:15:27;;;;;;;0.60;0.40;;;;;;;;;;5092795;28;20460;-65
2023/04/04 08:17:54;;;;;;;0.60;0.40;;;;;;;;;;5091389;28;20485;-64
2023/04/04 08:20:23;;;;;;;0.60;0.50;;;;;;;;;;5092138;28;21018;-65
2023/04/04 08:22:50;;;;;;;0.50;0.40;;;;;;;;;;5091910;28;20480;-64
2023/04/04 08:25:17;;;;;;;0.50;0.40;;;;;;;;;;5092648;28;20461;-65
2023/04/04 08:27:44;;;;;;;0.60;0.40;;;;;;;;;;5092043;28;20798;-64
2023/04/04 08:30:13;;;;;;;0.60;0.40;;;;;;;;;;5092155;28;20539;-65
2023/04/04 08:32:40;;;;;;;0.50;0.40;;;;;;;;;;5091840;28;20443;-65
2023/04/04 08:35:08;;;;;;;1.00;0.70;;;;;;;;;;5092402;28;20449;-65
2023/04/04 08:37:37;;;;;;;0.50;0.40;;;;;;;;;;5092383;28;20452;-65
2023/04/04 08:40:05;;;;;;;0.77;0.77;;;;;;;;;;5091969;28;20447;-65
2023/04/04 08:42:34;;;;;;;0.60;0.50;;;;;;;;;;5092059;28;21040;-65
2023/04/04 08:45:03;;;;;;;0.60;0.50;;;;;;;;;;5092337;28;20511;-65
2023/04/04 08:47:32;;;;;;;0.60;0.50;;;;;;;;;;5091897;28;20449;-65
2023/04/04 08:50:00;;;;;;;0.53;0.40;;;;;;;;;;5091186;28;20547;-65
2023/04/04 08:52:29;;;;;;;0.60;0.40;;;;;;;;;;5091973;28;20466;-65
2023/04/04 08:54:58;;;;;;;0.60;0.40;;;;;;;;;;5091577;28;20452;-65
2023/04/04 08:57:26;;;;;;;0.60;0.50;;;;;;;;;;5091676;28;20455;-65
2023/04/04 08:59:53;;;;;;;0.50;0.40;;;;;;;;;;5090939;28;20455;-64
2023/04/04 09:02:24;;;;;;;0.60;0.60;;;;;;;;;;5078093;28;20491;-65
2023/04/04 09:04:52;;;;;;;0.60;0.40;;;;;;;;;;5091098;28;20444;-64
2023/04/04 09:07:20;;;;;;;2.50;0.83;;;;;;;;;;5091668;28;20454;-65
2023/04/04 09:09:48;;;;;;;0.60;0.40;;;;;;;;;;5090676;28;20550;-65
2023/04/04 09:12:17;;;;;;;0.70;0.70;;;;;;;;;;5091964;28;20448;-65
2023/04/04 09:14:45;;;;;;;0.60;0.50;;;;;;;;;;5090972;28;20448;-65
2023/04/04 09:17:12;;;;;;;0.50;0.40;;;;;;;;;;5091699;28;20449;-65
2023/04/04 09:19:39;;;;;;;0.60;0.40;;;;;;;;;;5090079;28;20984;-64
2023/04/04 09:22:08;;;;;;;0.50;0.40;;;;;;;;;;5091209;28;20444;-65
2023/04/04 09:24:41;;;;;;;0.50;0.40;;;;;;;;;;5091312;28;20457;-65
2023/04/04 09:27:10;;;;;;;0.53;0.40;;;;;;;;;;5090370;28;20468;-65
2023/04/04 09:29:40;;;;;;;0.50;0.40;;;;;;;;;;5090384;28;20891;-64
2023/04/04 09:32:08;;;;;;;0.60;0.50;;;;;;;;;;5090981;28;20459;-65
2023/04/04 09:34:36;;;;;;;0.60;0.40;;;;;;;;;;5091489;28;20428;-65
2023/04/04 09:37:04;;;;;;;0.50;0.40;;;;;;;;;;5091333;28;20440;-65
2023/04/04 09:39:32;;;;;;;0.50;0.40;;;;;;;;;;5091194;28;20832;-65
2023/04/04 09:41:59;;;;;;;0.60;0.50;;;;;;;;;;5090748;28;20436;-65
2023/04/04 09:44:28;;;;;;;0.60;0.47;;;;;;;;;;5091027;28;20446;-65
2023/04/04 09:47:06;;;;;;;0.70;0.70;;;;;;;;;;5090373;28;20494;-65
2023/04/04 09:49:33;;;;;;;0.60;0.50;;;;;;;;;;5090929;28;20445;-65
2023/04/04 09:52:00;;;;;;;0.50;0.40;;;;;;;;;;5091026;28;20441;-65
2023/04/04 09:54:27;;;;;;;0.50;0.40;;;;;;;;;;5091409;28;20443;-65
2023/04/04 09:56:54;;;;;;;1.27;1.17;;;;;;;;;;5090301;28;20908;-65
2023/04/04 09:59:22;;;;;;;0.70;0.70;;;;;;;;;;5090838;28;20448;-65
2023/04/04 10:01:50;;;;;;;1.20;0.90;;;;;;;;;;5090663;28;20448;-64
2023/04/04 10:04:19;;;;;;;0.50;0.40;;;;;;;;;;5090883;28;20574;-64
2023/04/04 10:06:46;;;;;;;0.50;0.40;;;;;;;;;;5091834;28;20548;-64
2023/04/04 10:09:14;;;;;;;0.50;0.50;;;;;;;;;;5095052;28;20437;-65
2023/04/04 10:11:41;;;;;;;0.70;0.60;;;;;;;;;;5094336;28;20914;-64
2023/04/04 10:14:09;;;;;;;0.50;0.40;;;;;;;;;;5085508;28;20445;-65
2023/04/04 10:16:37;;;;;;;0.60;0.60;;;;;;;;;;5094430;28;20497;-64
2023/04/04 10:19:06;;;;;;;0.90;0.50;;;;;;;;;;5094596;28;20850;-65
2023/04/04 10:21:35;;;;;;;0.50;0.50;;;;;;;;;;5095118;28;20479;-63
2023/04/04 10:24:07;;;;;;;0.50;0.40;;;;;;;;;;5094713;28;20475;-64
2023/04/04 10:26:35;;;;;;;0.60;0.50;;;;;;;;;;5094728;28;20556;-64
2023/04/04 10:29:03;;;;;;;2.97;0.80;;;;;;;;;;5093776;28;20556;-65
2023/04/04 10:31:32;;;;;;;0.50;0.40;;;;;;;;;;5094451;28;20539;-65
2023/04/04 10:34:04;;;;;;;0.50;0.50;;;;;;;;;;5092916;28;20452;-65
2023/04/04 10:36:37;;;;;;;0.97;0.97;;;;;;;;;;5082833;28;20437;-64
2023/04/04 10:39:10;;;;;;;0.60;0.60;;;;;;;;;;5094142;28;20444;-63
2023/04/04 10:41:38;;;;;;;0.50;0.43;;;;;;;;;;5093879;28;20518;-63
2023/04/04 10:44:10;;;;;;;0.50;0.40;;;;;;;;;;5094333;28;20480;-63
2023/04/04 10:46:39;;;;;;;0.50;0.40;;;;;;;;;;5093210;28;20927;-62
2023/04/04 10:49:07;;;;;;;0.50;0.40;;;;;;;;;;5092447;28;20545;-62
2023/04/04 10:51:36;;;;;;;0.50;0.40;;;;;;;;;;5094734;28;20467;-63
2023/04/04 10:54:04;;;;;;;0.50;0.40;;;;;;;;;;5093700;28;20453;-63
2023/04/04 10:56:33;;;;;;;0.50;0.40;;;;;;;;;;5094284;28;20808;-63
2023/04/04 10:59:13;;;;;;;0.60;0.50;;;;;;;;;;5093015;28;20471;-62
2023/04/04 11:01:49;;;;;;;0.50;0.40;;;;;;;;;;5093121;28;20444;-63
2023/04/04 11:04:17;;;;;;;0.50;0.40;;;;;;;;;;5093802;28;20460;-63
2023/04/04 11:07:03;;;;;;;0.50;0.40;;;;;;;;;;5093407;28;20963;-63
2023/04/04 11:09:46;;;;;;;0.50;0.40;;;;;;;;;;5092998;28;20449;-64
2023/04/04 11:12:18;;;;;;;0.50;0.40;;;;;;;;;;5093320;28;20449;-63
2023/04/04 11:14:55;;;;;;;0.50;0.40;;;;;;;;;;5093123;28;20452;-63
2023/04/04 11:17:36;;;;;;;0.50;0.40;;;;;;;;;;5093667;28;20440;-63
2023/04/04 11:20:04;;;;;;;0.50;0.40;;;;;;;;;;5093086;28;20486;-63
2023/04/04 11:22:31;;;;;;;0.50;0.43;;;;;;;;;;5094036;28;20448;-63
2023/04/04 11:25:00;;;;;;;0.60;0.50;;;;;;;;;;5092948;28;20455;-63
2023/04/04 11:27:29;;;;;;;0.50;0.50;;;;;;;;;;5093631;28;20448;-63
2023/04/04 11:29:58;;;;;;;0.53;0.50;;;;;;;;;;5092639;28;20675;-63
2023/04/04 11:32:30;;;;;;;0.50;0.40;;;;;;;;;;5093145;28;20476;-63
2023/04/04 11:34:57;;;;;;;0.97;0.73;;;;;;;;;;5092659;28;20452;-63
2023/04/04 11:37:24;;;;;;;0.53;0.47;;;;;;;;;;5092960;28;20452;-63
2023/04/04 11:39:56;;;;;;;0.50;0.40;;;;;;;;;;5092579;28;20805;-63
2023/04/04 11:42:23;;;;;;;0.60;0.50;;;;;;;;;;5093135;28;20449;-63
2023/04/04 11:45:03;;;;;;;0.57;0.43;;;;;;;;;;5092778;28;20488;-63
2023/04/04 11:47:31;;;;;;;0.60;0.40;;;;;;;;;;5092507;28;20441;-63
2023/04/04 11:49:59;;;;;;;0.50;0.40;;;;;;;;;;5092396;28;20811;-63
2023/04/04 11:52:27;;;;;;;0.60;0.40;;;;;;;;;;5093047;28;20513;-63
2023/04/04 11:54:54;;;;;;;0.50;0.50;;;;;;;;;;5092652;28;20448;-63
2023/04/04 11:57:21;;;;;;;0.70;0.70;;;;;;;;;;5092816;28;20955;-63
2023/04/04 11:59:49;;;;;;;0.70;0.70;;;;;;;;;;5090225;28;20445;-65
2023/04/04 12:02:20;;;;;;;0.50;0.40;;;;;;;;;;5079047;28;20458;-67
2023/04/04 12:04:48;;;;;;;0.50;0.40;;;;;;;;;;5091206;28;20472;-62
2023/04/04 12:07:15;;;;;;;0.80;0.80;;;;;;;;;;5092225;28;20440;-63
2023/04/04 12:09:42;;;;;;;0.83;0.83;;;;;;;;;;5091690;28;20502;-62
2023/04/04 12:12:13;;;;;;;1.20;0.80;;;;;;;;;;5092504;28;20432;-62
2023/04/04 12:14:41;;;;;;;0.63;0.50;;;;;;;;;;5092295;28;20451;-62
2023/04/04 12:17:08;;;;;;;0.50;0.40;;;;;;;;;;5092700;28;20455;-62
2023/04/04 12:19:38;;;;;;;0.50;0.50;;;;;;;;;;5091618;28;20468;-64
2023/04/04 12:22:06;;;;;;;0.50;0.50;;;;;;;;;;5092234;28;20443;-63
2023/04/04 12:24:34;;;;;;;0.67;0.60;;;;;;;;;;5092157;28;20484;-62
2023/04/04 12:27:02;;;;;;;0.87;0.60;;;;;;;;;;5090897;28;20449;-62
2023/04/04 12:29:34;;;;;;;0.50;0.40;;;;;;;;;;5091477;28;20806;-62
2023/04/04 12:32:02;;;;;;;1.33;1.33;;;;;;;;;;5092042;28;20441;-62
2023/04/04 12:34:30;;;;;;;0.60;0.50;;;;;;;;;;5092223;28;20449;-63
2023/04/04 12:36:58;;;;;;;0.50;0.40;;;;;;;;;;5090995;28;20460;-62
2023/04/04 12:39:26;;;;;;;1.00;0.60;;;;;;;;;;5091509;28;20449;-62
2023/04/04 12:41:54;;;;;;;0.50;0.40;;;;;;;;;;5091757;28;20452;-62
2023/04/04 12:44:29;;;;;;;0.50;0.43;;;;;;;;;;5091583;28;20484;-62
2023/04/04 12:46:58;;;;;;;0.50;0.40;;;;;;;;;;5090715;28;20507;-62
2023/04/04 12:49:28;;;;;;;2.73;0.60;;;;;;;;;;5090853;28;20943;-62
2023/04/04 12:51:57;;;;;;;0.97;0.50;;;;;;;;;;5090839;28;20448;-62
2023/04/04 12:54:29;;;;;;;0.50;0.40;;;;;;;;;;5091344;28;20483;-63
2023/04/04 12:56:57;;;;;;;1.90;0.70;;;;;;;;;;5090719;28;20448;-62
2023/04/04 12:59:25;;;;;;;0.60;0.50;;;;;;;;;;5091571;28;20448;-63
2023/04/04 13:01:52;;;;;;;0.97;0.83;;;;;;;;;;5091280;28;20480;-65
2023/04/04 13:04:19;;;;;;;0.50;0.40;;;;;;;;;;5091326;28;20480;-65
2023/04/04 13:06:47;;;;;;;0.50;0.47;;;;;;;;;;5090859;28;20449;-64
2023/04/04 13:09:17;;;;;;;0.50;0.40;;;;;;;;;;5091468;28;20444;-64
2023/04/04 13:11:59;;;;;;;0.70;0.67;;;;;;;;;;5090934;28;20927;-63
2023/04/04 13:14:26;;;;;;;0.90;0.70;;;;;;;;;;5091573;28;20844;-63
2023/04/04 13:17:07;;;;;;;0.50;0.40;;;;;;;;;;5090837;28;20480;-66
2023/04/04 13:19:34;;;;;;;0.50;0.40;;;;;;;;;;5090805;28;20923;-64
2023/04/04 13:22:02;;;;;;;0.60;0.50;;;;;;;;;;5091419;28;20468;-63
2023/04/04 13:24:29;;;;;;;0.70;0.50;;;;;;;;;;5091220;28;20476;-64
2023/04/04 13:26:56;;;;;;;0.60;0.60;;;;;;;;;;5090950;28;21123;-63
2023/04/04 13:29:26;;;;;;;0.70;0.70;;;;;;;;;;5091007;28;20452;-64
2023/04/04 13:31:53;;;;;;;0.50;0.40;;;;;;;;;;5090718;28;20444;-65
2023/04/04 13:34:22;;;;;;;0.63;0.50;;;;;;;;;;5091252;28;20448;-63
2023/04/04 13:36:49;;;;;;;0.50;0.50;;;;;;;;;;5090649;28;20815;-65
2023/04/04 13:39:17;;;;;;;0.80;0.70;;;;;;;;;;5090899;28;20444;-63
2023/04/04 13:41:44;;;;;;;1.00;1.00;;;;;;;;;;5090143;28;20444;-63
2023/04/04 13:44:11;;;;;;;1.20;0.90;;;;;;;;;;5090802;28;20985;-65
2023/04/04 13:46:39;;;;;;;1.23;0.63;;;;;;;;;;5090734;28;20440;-64
2023/04/04 13:49:06;;;;;;;0.50;0.40;;;;;;;;;;5090530;28;20448;-64
2023/04/04 13:51:34;;;;;;;0.80;0.80;;;;;;;;;;5091424;28;20445;-64
2023/04/04 13:54:02;;;;;;;0.50;0.50;;;;;;;;;;5091250;28;20452;-63
2023/04/04 13:56:29;;;;;;;0.50;0.40;;;;;;;;;;5091099;28;20440;-64
2023/04/04 13:58:56;;;;;;;0.60;0.50;;;;;;;;;;5089884;28;20715;-64
2023/04/04 14:01:23;;;;;;;0.93;0.90;;;;;;;;;;5090754;28;20480;-64
2023/04/04 14:03:52;;;;;;;0.50;0.40;;;;;;;;;;5090270;28;20487;-63
2023/04/04 14:06:19;;;;;;;0.50;0.50;;;;;;;;;;5090997;28;20446;-64
2023/04/04 14:08:46;;;;;;;0.50;0.50;;;;;;;;;;5090219;28;20445;-63
2023/04/04 14:11:14;;;;;;;0.50;0.50;;;;;;;;;;5091108;28;20535;-65
2023/04/04 14:13:41;;;;;;;0.57;0.50;;;;;;;;;;5090118;28;20970;-63
2023/04/04 14:16:08;;;;;;;0.50;0.40;;;;;;;;;;5090650;28;20456;-63
2023/04/04 14:18:35;;;;;;;0.60;0.50;;;;;;;;;;5090582;28;20810;-63
2023/04/04 14:21:04;;;;;;;0.60;0.60;;;;;;;;;;5090960;28;20472;-63
2023/04/04 14:23:31;;;;;;;2.20;1.20;;;;;;;;;;5090867;28;20452;-63
2023/04/04 14:25:59;;;;;;;0.60;0.50;;;;;;;;;;5090266;28;20930;-65
2023/04/04 14:28:26;;;;;;;1.07;0.97;;;;;;;;;;5090385;28;20483;-63
2023/04/04 14:30:53;;;;;;;0.50;0.50;;;;;;;;;;5090082;28;20445;-64
2023/04/04 14:33:21;;;;;;;0.60;0.60;;;;;;;;;;5090493;28;20449;-64
2023/04/04 14:35:48;;;;;;;0.60;0.50;;;;;;;;;;5090021;28;20496;-62
2023/04/04 14:38:16;;;;;;;1.93;1.13;;;;;;;;;;5090266;28;20954;-65
2023/04/04 14:40:44;;;;;;;0.50;0.50;;;;;;;;;;5089927;28;20448;-63
2023/04/04 14:43:11;;;;;;;0.60;0.50;;;;;;;;;;5090642;28;20437;-63
2023/04/04 14:45:38;;;;;;;0.50;0.50;;;;;;;;;;5089862;28;20484;-65
2023/04/04 14:48:05;;;;;;;0.60;0.50;;;;;;;;;;5090116;28;20452;-67